メインページ
METAR-TAF:

METAR-TAF

空港 :

オデッサ国際空港

オデッサ, ウクライナ

緯度: 46-26N, 経度: 030-46E, 海抜: 42m

現時点の気象観測

当レポートは39分前の06:00(UTC)に作成
西/南西の風 6kt
気温 8°C
湿度 100%
気圧 1010 hPa
視程: 7000m

METAR: UKOO 150600Z 25003MPS 7000 NSC 08/08 Q1010 R16/290054 NOSIG

時間: 08:39 (06:39 UTC)

予報

当レポートは1時間32分前の05:07(UTC)に作成
予報は15日の 06時(UTC)から 16日の 06時(UTC)まで有効
西/北西の風 14kt、最大27ktの突風を伴う
視程: 2100m
高度700ftの千切れ雲あり
高度1500ftの雲は散在している, 積乱雲.
弱いにわか雨, 靄
確率 40% :
15日の 06時(UTC)から 15日の 12時(UTC)まで一時的に
視程: 1000m
高度300ftの千切れ雲あり
高度1500ftの雲は散在している, 積乱雲.
にわか雨, 靄
15日の 12時(UTC)から 15日の 13時(UTC)まで徐々に
西の風 6kt
視程: 4000m
15日の 23時(UTC)から 15日の 24時(UTC)まで徐々に
南/南西の風 6kt
視程: 2100m

TAF: UKOO 150507Z 1506/1606 29007G14MPS 2100 -SHRA BR BKN007 SCT015CB PROB40 TEMPO 1506/1512 1000 SHRA BR BKN003 SCT015CB BECMG 1512/1513 26003MPS 4000 BR BECMG 1523/1524 20003MPS 2100

4,000以上の空港の気象観測と天気予報(METAR報とTAF報)

利用可能な観測所は地図上に黄色い丸と赤い丸で示す。

丸の上にカーソルを重ねると観測所名を参照できる。

次にクリックすると気象観測と天気予報を参照できる。

マップの切り替え:黒色「×」印の緑ボタンをクリックして拡大、「-」印の緑ボタンをクリックして縮小、緑色の三角印をクリックして隣りの地図に切り替え


METAR-TAF: